sensor_id;sensor_type;location;lat;lon;timestamp;P1;durP1;ratioP1;P2;durP2;ratioP2
2406;SDS011;37709;53.480;9.688;2022-09-09T00:04:13;180.80;;;45.40;;
2406;SDS011;37709;53.480;9.688;2022-09-09T00:09:46;89.37;;;35.30;;
2406;SDS011;37709;53.480;9.688;2022-09-09T00:12:23;181.07;;;46.57;;
2406;SDS011;37709;53.480;9.688;2022-09-09T00:15:11;107.53;;;37.90;;
2406;SDS011;37709;53.480;9.688;2022-09-09T00:17:47;131.60;;;39.90;;
2406;SDS011;37709;53.480;9.688;2022-09-09T00:21:07;118.63;;;39.10;;
2406;SDS011;37709;53.480;9.688;2022-09-09T00:26:05;119.37;;;38.83;;
2406;SDS011;37709;53.480;9.688;2022-09-09T00:28:46;89.47;;;35.47;;
2406;SDS011;37709;53.480;9.688;2022-09-09T00:31:20;159.07;;;44.90;;
2406;SDS011;37709;53.480;9.688;2022-09-09T00:33:52;80.30;;;35.90;;
2406;SDS011;37709;53.480;9.688;2022-09-09T00:36:21;119.17;;;38.30;;
2406;SDS011;37709;53.480;9.688;2022-09-09T00:38:53;127.20;;;39.30;;
2406;SDS011;37709;53.480;9.688;2022-09-09T00:44:36;105.20;;;37.83;;
2406;SDS011;37709;53.480;9.688;2022-09-09T00:53:32;123.50;;;38.30;;
2406;SDS011;37709;53.480;9.688;2022-09-09T00:56:00;95.17;;;35.47;;
2406;SDS011;37709;53.480;9.688;2022-09-09T00:59:06;138.60;;;38.03;;
2406;SDS011;37709;53.480;9.688;2022-09-09T01:01:45;165.13;;;41.17;;
2406;SDS011;37709;53.480;9.688;2022-09-09T01:04:13;151.20;;;40.87;;
2406;SDS011;37709;53.480;9.688;2022-09-09T01:06:47;123.23;;;38.57;;
2406;SDS011;37709;53.480;9.688;2022-09-09T01:12:15;183.70;;;41.60;;
2406;SDS011;37709;53.480;9.688;2022-09-09T01:14:56;128.17;;;38.07;;
2406;SDS011;37709;53.480;9.688;2022-09-09T01:20:13;89.17;;;33.20;;
2406;SDS011;37709;53.480;9.688;2022-09-09T01:26:26;101.20;;;34.07;;
2406;SDS011;37709;53.480;9.688;2022-09-09T01:29:02;107.30;;;36.10;;
2406;SDS011;37709;53.480;9.688;2022-09-09T01:31:59;142.97;;;38.30;;
2406;SDS011;37709;53.480;9.688;2022-09-09T01:34:36;140.90;;;40.20;;
2406;SDS011;37709;53.480;9.688;2022-09-09T01:37:07;120.40;;;35.10;;
2406;SDS011;37709;53.480;9.688;2022-09-09T01:39:39;141.00;;;37.93;;
2406;SDS011;37709;53.480;9.688;2022-09-09T01:42:13;129.40;;;36.93;;
2406;SDS011;37709;53.480;9.688;2022-09-09T01:44:43;168.07;;;39.80;;
2406;SDS011;37709;53.480;9.688;2022-09-09T01:47:12;92.33;;;32.93;;
2406;SDS011;37709;53.480;9.688;2022-09-09T01:50:04;144.80;;;35.97;;
2406;SDS011;37709;53.480;9.688;2022-09-09T01:52:34;93.10;;;34.73;;
2406;SDS011;37709;53.480;9.688;2022-09-09T01:55:07;114.43;;;34.10;;
2406;SDS011;37709;53.480;9.688;2022-09-09T01:57:40;101.30;;;32.77;;
2406;SDS011;37709;53.480;9.688;2022-09-09T02:00:11;103.63;;;34.37;;
2406;SDS011;37709;53.480;9.688;2022-09-09T02:05:45;166.00;;;38.63;;
2406;SDS011;37709;53.480;9.688;2022-09-09T02:11:27;80.67;;;32.00;;
2406;SDS011;37709;53.480;9.688;2022-09-09T02:14:09;81.57;;;30.30;;
2406;SDS011;37709;53.480;9.688;2022-09-09T02:17:30;149.57;;;37.63;;
2406;SDS011;37709;53.480;9.688;2022-09-09T02:19:54;91.13;;;31.90;;
2406;SDS011;37709;53.480;9.688;2022-09-09T02:22:53;90.60;;;33.60;;
2406;SDS011;37709;53.480;9.688;2022-09-09T02:25:24;76.50;;;31.23;;
2406;SDS011;37709;53.480;9.688;2022-09-09T02:27:57;126.40;;;36.43;;
2406;SDS011;37709;53.480;9.688;2022-09-09T02:30:26;81.20;;;31.20;;
2406;SDS011;37709;53.480;9.688;2022-09-09T02:32:58;131.30;;;36.50;;
2406;SDS011;37709;53.480;9.688;2022-09-09T02:35:42;151.87;;;40.03;;
2406;SDS011;37709;53.480;9.688;2022-09-09T02:38:15;104.83;;;34.33;;
2406;SDS011;37709;53.480;9.688;2022-09-09T02:40:55;94.97;;;35.60;;
2406;SDS011;37709;53.480;9.688;2022-09-09T02:43:23;118.67;;;35.47;;
2406;SDS011;37709;53.480;9.688;2022-09-09T02:45:54;98.37;;;35.20;;
2406;SDS011;37709;53.480;9.688;2022-09-09T02:49:03;98.60;;;34.13;;
2406;SDS011;37709;53.480;9.688;2022-09-09T02:51:38;92.80;;;31.80;;
2406;SDS011;37709;53.480;9.688;2022-09-09T02:54:26;106.97;;;34.40;;
2406;SDS011;37709;53.480;9.688;2022-09-09T02:59:41;140.83;;;38.37;;
2406;SDS011;37709;53.480;9.688;2022-09-09T03:02:11;78.90;;;31.97;;
2406;SDS011;37709;53.480;9.688;2022-09-09T03:04:41;88.77;;;32.33;;
2406;SDS011;37709;53.480;9.688;2022-09-09T03:07:18;105.47;;;34.43;;
2406;SDS011;37709;53.480;9.688;2022-09-09T03:09:47;89.50;;;32.83;;
2406;SDS011;37709;53.480;9.688;2022-09-09T03:12:17;94.83;;;33.10;;
2406;SDS011;37709;53.480;9.688;2022-09-09T03:14:44;107.63;;;34.10;;
2406;SDS011;37709;53.480;9.688;2022-09-09T03:17:13;79.63;;;30.63;;
2406;SDS011;37709;53.480;9.688;2022-09-09T03:19:47;125.47;;;36.13;;
2406;SDS011;37709;53.480;9.688;2022-09-09T03:22:17;85.27;;;31.30;;
2406;SDS011;37709;53.480;9.688;2022-09-09T03:24:45;103.13;;;34.70;;
2406;SDS011;37709;53.480;9.688;2022-09-09T03:27:14;103.80;;;33.57;;
2406;SDS011;37709;53.480;9.688;2022-09-09T03:29:42;93.30;;;31.53;;
2406;SDS011;37709;53.480;9.688;2022-09-09T03:32:14;79.20;;;31.17;;
2406;SDS011;37709;53.480;9.688;2022-09-09T03:34:44;82.30;;;33.83;;
2406;SDS011;37709;53.480;9.688;2022-09-09T03:37:14;98.87;;;32.87;;
2406;SDS011;37709;53.480;9.688;2022-09-09T03:39:42;66.97;;;28.67;;
2406;SDS011;37709;53.480;9.688;2022-09-09T03:42:13;79.30;;;30.80;;
2406;SDS011;37709;53.480;9.688;2022-09-09T03:44:46;70.37;;;29.53;;
2406;SDS011;37709;53.480;9.688;2022-09-09T03:47:18;77.33;;;29.70;;
2406;SDS011;37709;53.480;9.688;2022-09-09T03:49:52;75.53;;;30.30;;
2406;SDS011;37709;53.480;9.688;2022-09-09T03:52:20;75.80;;;30.10;;
2406;SDS011;37709;53.480;9.688;2022-09-09T03:54:52;98.77;;;32.23;;
2406;SDS011;37709;53.480;9.688;2022-09-09T03:57:20;74.30;;;28.80;;
2406;SDS011;37709;53.480;9.688;2022-09-09T03:59:49;82.40;;;30.33;;
2406;SDS011;37709;53.480;9.688;2022-09-09T04:02:16;83.77;;;30.27;;
2406;SDS011;37709;53.480;9.688;2022-09-09T04:04:44;67.90;;;29.47;;
2406;SDS011;37709;53.480;9.688;2022-09-09T04:07:11;59.97;;;27.83;;
2406;SDS011;37709;53.480;9.688;2022-09-09T04:09:39;48.97;;;24.63;;
2406;SDS011;37709;53.480;9.688;2022-09-09T04:12:07;72.17;;;29.63;;
2406;SDS011;37709;53.480;9.688;2022-09-09T04:14:34;90.30;;;31.70;;
2406;SDS011;37709;53.480;9.688;2022-09-09T04:17:06;67.80;;;28.20;;
2406;SDS011;37709;53.480;9.688;2022-09-09T04:19:34;76.97;;;28.87;;
2406;SDS011;37709;53.480;9.688;2022-09-09T04:22:02;52.90;;;25.77;;
2406;SDS011;37709;53.480;9.688;2022-09-09T04:24:29;99.40;;;32.90;;
2406;SDS011;37709;53.480;9.688;2022-09-09T04:26:59;49.00;;;25.60;;
2406;SDS011;37709;53.480;9.688;2022-09-09T04:29:26;60.97;;;26.87;;
2406;SDS011;37709;53.480;9.688;2022-09-09T04:31:53;58.37;;;25.50;;
2406;SDS011;37709;53.480;9.688;2022-09-09T04:34:21;50.27;;;22.97;;
2406;SDS011;37709;53.480;9.688;2022-09-09T04:36:49;57.63;;;27.77;;
2406;SDS011;37709;53.480;9.688;2022-09-09T04:39:19;58.93;;;26.23;;
2406;SDS011;37709;53.480;9.688;2022-09-09T04:41:48;44.17;;;21.87;;
2406;SDS011;37709;53.480;9.688;2022-09-09T04:44:16;54.90;;;25.57;;
2406;SDS011;37709;53.480;9.688;2022-09-09T04:46:43;43.50;;;22.37;;
2406;SDS011;37709;53.480;9.688;2022-09-09T04:49:12;76.13;;;27.17;;
2406;SDS011;37709;53.480;9.688;2022-09-09T04:51:42;58.70;;;23.40;;
2406;SDS011;37709;53.480;9.688;2022-09-09T04:54:09;40.80;;;20.67;;
2406;SDS011;37709;53.480;9.688;2022-09-09T04:56:40;78.50;;;25.87;;
2406;SDS011;37709;53.480;9.688;2022-09-09T04:59:10;38.37;;;20.70;;
2406;SDS011;37709;53.480;9.688;2022-09-09T05:01:48;69.70;;;24.33;;
2406;SDS011;37709;53.480;9.688;2022-09-09T05:04:17;51.93;;;21.50;;
2406;SDS011;37709;53.480;9.688;2022-09-09T05:06:47;63.00;;;23.57;;
2406;SDS011;37709;53.480;9.688;2022-09-09T05:09:15;45.80;;;20.07;;
2406;SDS011;37709;53.480;9.688;2022-09-09T05:11:44;46.67;;;21.30;;
2406;SDS011;37709;53.480;9.688;2022-09-09T05:14:20;64.00;;;21.60;;
2406;SDS011;37709;53.480;9.688;2022-09-09T05:16:47;32.63;;;18.23;;
2406;SDS011;37709;53.480;9.688;2022-09-09T05:19:16;52.80;;;19.97;;
2406;SDS011;37709;53.480;9.688;2022-09-09T05:21:48;34.70;;;18.47;;
2406;SDS011;37709;53.480;9.688;2022-09-09T05:24:20;34.90;;;16.90;;
2406;SDS011;37709;53.480;9.688;2022-09-09T05:26:52;24.47;;;15.70;;
2406;SDS011;37709;53.480;9.688;2022-09-09T05:29:19;37.83;;;17.90;;
2406;SDS011;37709;53.480;9.688;2022-09-09T05:31:47;37.57;;;19.37;;
2406;SDS011;37709;53.480;9.688;2022-09-09T05:34:21;36.40;;;18.63;;
2406;SDS011;37709;53.480;9.688;2022-09-09T05:36:50;20.77;;;14.33;;
2406;SDS011;37709;53.480;9.688;2022-09-09T05:39:20;26.43;;;15.43;;
2406;SDS011;37709;53.480;9.688;2022-09-09T05:41:47;28.10;;;15.03;;
2406;SDS011;37709;53.480;9.688;2022-09-09T05:44:16;19.07;;;12.60;;
2406;SDS011;37709;53.480;9.688;2022-09-09T05:46:44;23.93;;;14.90;;
2406;SDS011;37709;53.480;9.688;2022-09-09T05:49:13;31.50;;;15.53;;
2406;SDS011;37709;53.480;9.688;2022-09-09T05:51:43;15.33;;;11.03;;
2406;SDS011;37709;53.480;9.688;2022-09-09T05:54:13;37.40;;;15.87;;
2406;SDS011;37709;53.480;9.688;2022-09-09T05:56:45;18.60;;;12.47;;
2406;SDS011;37709;53.480;9.688;2022-09-09T05:59:17;17.67;;;12.30;;
2406;SDS011;37709;53.480;9.688;2022-09-09T06:01:45;34.10;;;15.33;;
2406;SDS011;37709;53.480;9.688;2022-09-09T06:04:20;20.60;;;11.23;;
2406;SDS011;37709;53.480;9.688;2022-09-09T06:06:50;17.47;;;12.23;;
2406;SDS011;37709;53.480;9.688;2022-09-09T06:09:20;26.47;;;12.83;;
2406;SDS011;37709;53.480;9.688;2022-09-09T06:11:47;17.43;;;12.53;;
2406;SDS011;37709;53.480;9.688;2022-09-09T06:14:15;23.93;;;12.37;;
2406;SDS011;37709;53.480;9.688;2022-09-09T06:16:46;22.57;;;13.63;;
2406;SDS011;37709;53.480;9.688;2022-09-09T06:19:18;18.53;;;12.07;;
2406;SDS011;37709;53.480;9.688;2022-09-09T06:21:47;23.50;;;11.90;;
2406;SDS011;37709;53.480;9.688;2022-09-09T06:24:15;24.00;;;12.97;;
2406;SDS011;37709;53.480;9.688;2022-09-09T06:26:46;25.93;;;13.73;;
2406;SDS011;37709;53.480;9.688;2022-09-09T06:29:19;22.80;;;12.50;;
2406;SDS011;37709;53.480;9.688;2022-09-09T06:31:46;19.10;;;12.63;;
2406;SDS011;37709;53.480;9.688;2022-09-09T06:34:23;15.80;;;11.30;;
2406;SDS011;37709;53.480;9.688;2022-09-09T06:36:54;23.20;;;11.70;;
2406;SDS011;37709;53.480;9.688;2022-09-09T06:39:25;25.60;;;13.80;;
2406;SDS011;37709;53.480;9.688;2022-09-09T06:41:54;22.63;;;12.60;;
2406;SDS011;37709;53.480;9.688;2022-09-09T06:44:40;18.57;;;12.27;;
2406;SDS011;37709;53.480;9.688;2022-09-09T06:47:13;20.97;;;12.10;;
2406;SDS011;37709;53.480;9.688;2022-09-09T06:49:42;16.03;;;10.73;;
2406;SDS011;37709;53.480;9.688;2022-09-09T06:52:14;19.30;;;11.73;;
2406;SDS011;37709;53.480;9.688;2022-09-09T06:54:41;14.37;;;10.77;;
2406;SDS011;37709;53.480;9.688;2022-09-09T06:57:09;15.47;;;10.47;;
2406;SDS011;37709;53.480;9.688;2022-09-09T06:59:57;17.60;;;10.40;;
2406;SDS011;37709;53.480;9.688;2022-09-09T07:02:24;17.67;;;11.20;;
2406;SDS011;37709;53.480;9.688;2022-09-09T07:04:53;12.70;;;10.17;;
2406;SDS011;37709;53.480;9.688;2022-09-09T07:07:20;14.93;;;10.57;;
2406;SDS011;37709;53.480;9.688;2022-09-09T07:09:48;15.03;;;10.00;;
2406;SDS011;37709;53.480;9.688;2022-09-09T07:12:15;14.07;;;10.87;;
2406;SDS011;37709;53.480;9.688;2022-09-09T07:14:50;12.57;;;9.50;;
2406;SDS011;37709;53.480;9.688;2022-09-09T07:17:17;15.57;;;10.80;;
2406;SDS011;37709;53.480;9.688;2022-09-09T07:19:45;9.97;;;8.27;;
2406;SDS011;37709;53.480;9.688;2022-09-09T07:22:14;11.27;;;9.60;;
2406;SDS011;37709;53.480;9.688;2022-09-09T07:24:43;20.00;;;10.47;;
2406;SDS011;37709;53.480;9.688;2022-09-09T07:27:12;12.43;;;8.63;;
2406;SDS011;37709;53.480;9.688;2022-09-09T07:29:40;10.03;;;8.60;;
2406;SDS011;37709;53.480;9.688;2022-09-09T07:32:09;8.93;;;8.13;;
2406;SDS011;37709;53.480;9.688;2022-09-09T07:34:37;8.50;;;7.73;;
2406;SDS011;37709;53.480;9.688;2022-09-09T07:37:05;9.33;;;8.40;;
2406;SDS011;37709;53.480;9.688;2022-09-09T07:39:34;14.57;;;7.80;;
2406;SDS011;37709;53.480;9.688;2022-09-09T07:42:02;9.50;;;8.37;;
2406;SDS011;37709;53.480;9.688;2022-09-09T07:44:31;10.10;;;6.87;;
2406;SDS011;37709;53.480;9.688;2022-09-09T07:47:06;7.67;;;6.97;;
2406;SDS011;37709;53.480;9.688;2022-09-09T07:49:37;8.50;;;7.00;;
2406;SDS011;37709;53.480;9.688;2022-09-09T07:52:07;7.30;;;6.70;;
2406;SDS011;37709;53.480;9.688;2022-09-09T07:54:35;6.53;;;5.93;;
2406;SDS011;37709;53.480;9.688;2022-09-09T07:57:05;6.30;;;5.70;;
2406;SDS011;37709;53.480;9.688;2022-09-09T07:59:35;6.30;;;5.60;;
2406;SDS011;37709;53.480;9.688;2022-09-09T08:02:03;6.00;;;5.23;;
2406;SDS011;37709;53.480;9.688;2022-09-09T08:04:33;5.27;;;4.63;;
2406;SDS011;37709;53.480;9.688;2022-09-09T08:07:02;5.60;;;5.10;;
2406;SDS011;37709;53.480;9.688;2022-09-09T08:09:35;5.70;;;4.37;;
2406;SDS011;37709;53.480;9.688;2022-09-09T08:12:17;5.70;;;4.63;;
2406;SDS011;37709;53.480;9.688;2022-09-09T08:14:46;4.77;;;4.37;;
2406;SDS011;37709;53.480;9.688;2022-09-09T08:17:15;5.73;;;4.60;;
2406;SDS011;37709;53.480;9.688;2022-09-09T08:19:43;4.13;;;3.73;;
2406;SDS011;37709;53.480;9.688;2022-09-09T08:22:16;5.20;;;4.40;;
2406;SDS011;37709;53.480;9.688;2022-09-09T08:24:44;4.83;;;4.20;;
2406;SDS011;37709;53.480;9.688;2022-09-09T08:27:12;4.30;;;3.90;;
2406;SDS011;37709;53.480;9.688;2022-09-09T08:29:40;4.23;;;3.73;;
2406;SDS011;37709;53.480;9.688;2022-09-09T08:32:08;4.20;;;3.90;;
2406;SDS011;37709;53.480;9.688;2022-09-09T08:34:37;6.73;;;4.30;;
2406;SDS011;37709;53.480;9.688;2022-09-09T08:37:10;4.17;;;3.83;;
2406;SDS011;37709;53.480;9.688;2022-09-09T08:39:40;5.30;;;4.20;;
2406;SDS011;37709;53.480;9.688;2022-09-09T08:51:05;4.33;;;3.20;;
2406;SDS011;37709;53.480;9.688;2022-09-09T08:53:38;4.57;;;3.67;;
2406;SDS011;37709;53.480;9.688;2022-09-09T08:56:11;3.90;;;3.50;;
2406;SDS011;37709;53.480;9.688;2022-09-09T08:58:50;4.10;;;3.33;;
2406;SDS011;37709;53.480;9.688;2022-09-09T09:04:05;4.13;;;3.27;;
2406;SDS011;37709;53.480;9.688;2022-09-09T09:07:28;3.10;;;2.40;;
2406;SDS011;37709;53.480;9.688;2022-09-09T09:10:02;3.90;;;2.70;;
2406;SDS011;37709;53.480;9.688;2022-09-09T09:12:59;3.00;;;2.77;;
2406;SDS011;37709;53.480;9.688;2022-09-09T09:15:31;2.63;;;2.43;;
2406;SDS011;37709;53.480;9.688;2022-09-09T09:18:05;3.70;;;2.70;;
2406;SDS011;37709;53.480;9.688;2022-09-09T09:20:38;2.10;;;2.00;;
2406;SDS011;37709;53.480;9.688;2022-09-09T09:23:52;2.80;;;2.10;;
2406;SDS011;37709;53.480;9.688;2022-09-09T09:26:30;2.20;;;1.83;;
2406;SDS011;37709;53.480;9.688;2022-09-09T09:29:13;4.30;;;1.70;;
2406;SDS011;37709;53.480;9.688;2022-09-09T09:31:50;2.70;;;1.47;;
2406;SDS011;37709;53.480;9.688;2022-09-09T09:34:23;1.90;;;1.50;;
2406;SDS011;37709;53.480;9.688;2022-09-09T09:36:57;1.70;;;1.37;;
2406;SDS011;37709;53.480;9.688;2022-09-09T09:39:31;1.37;;;1.27;;
2406;SDS011;37709;53.480;9.688;2022-09-09T09:42:23;3.43;;;1.10;;
2406;SDS011;37709;53.480;9.688;2022-09-09T09:44:54;2.50;;;1.23;;
2406;SDS011;37709;53.480;9.688;2022-09-09T09:47:22;2.37;;;1.20;;
2406;SDS011;37709;53.480;9.688;2022-09-09T09:50:00;1.83;;;1.10;;
2406;SDS011;37709;53.480;9.688;2022-09-09T09:52:35;4.87;;;1.10;;
2406;SDS011;37709;53.480;9.688;2022-09-09T09:55:04;2.27;;;1.20;;
2406;SDS011;37709;53.480;9.688;2022-09-09T09:57:39;1.83;;;1.00;;
2406;SDS011;37709;53.480;9.688;2022-09-09T10:00:14;1.97;;;1.00;;
2406;SDS011;37709;53.480;9.688;2022-09-09T10:02:50;1.90;;;1.03;;
2406;SDS011;37709;53.480;9.688;2022-09-09T10:05:30;1.83;;;0.90;;
2406;SDS011;37709;53.480;9.688;2022-09-09T10:16:50;2.93;;;1.07;;
2406;SDS011;37709;53.480;9.688;2022-09-09T10:19:10;1.70;;;1.00;;
2406;SDS011;37709;53.480;9.688;2022-09-09T10:27:01;2.00;;;0.90;;
2406;SDS011;37709;53.480;9.688;2022-09-09T10:32:46;3.00;;;1.00;;
2406;SDS011;37709;53.480;9.688;2022-09-09T10:35:25;2.30;;;1.17;;
2406;SDS011;37709;53.480;9.688;2022-09-09T10:46:23;1.73;;;0.70;;
2406;SDS011;37709;53.480;9.688;2022-09-09T10:54:45;3.13;;;1.33;;
2406;SDS011;37709;53.480;9.688;2022-09-09T10:57:30;1.87;;;0.90;;
2406;SDS011;37709;53.480;9.688;2022-09-09T11:00:04;1.40;;;0.90;;
2406;SDS011;37709;53.480;9.688;2022-09-09T11:02:41;1.67;;;0.77;;
2406;SDS011;37709;53.480;9.688;2022-09-09T11:07:49;4.27;;;1.10;;
2406;SDS011;37709;53.480;9.688;2022-09-09T11:13:23;1.90;;;0.97;;
2406;SDS011;37709;53.480;9.688;2022-09-09T11:15:54;2.07;;;1.40;;
2406;SDS011;37709;53.480;9.688;2022-09-09T11:18:45;1.77;;;1.10;;
2406;SDS011;37709;53.480;9.688;2022-09-09T11:21:19;1.90;;;1.10;;
2406;SDS011;37709;53.480;9.688;2022-09-09T11:23:54;1.57;;;0.97;;
2406;SDS011;37709;53.480;9.688;2022-09-09T11:26:30;3.17;;;1.50;;
2406;SDS011;37709;53.480;9.688;2022-09-09T11:29:08;2.67;;;1.27;;
2406;SDS011;37709;53.480;9.688;2022-09-09T11:31:46;2.33;;;1.40;;
2406;SDS011;37709;53.480;9.688;2022-09-09T11:40:23;1.47;;;0.90;;
2406;SDS011;37709;53.480;9.688;2022-09-09T11:43:12;2.00;;;1.23;;
2406;SDS011;37709;53.480;9.688;2022-09-09T11:45:42;2.03;;;1.00;;
2406;SDS011;37709;53.480;9.688;2022-09-09T11:48:28;1.77;;;1.10;;
2406;SDS011;37709;53.480;9.688;2022-09-09T11:51:08;1.93;;;1.03;;
2406;SDS011;37709;53.480;9.688;2022-09-09T11:53:53;1.70;;;1.00;;
2406;SDS011;37709;53.480;9.688;2022-09-09T11:59:05;2.13;;;1.30;;
2406;SDS011;37709;53.480;9.688;2022-09-09T12:01:53;2.77;;;1.00;;
2406;SDS011;37709;53.480;9.688;2022-09-09T12:04:30;2.23;;;1.07;;
2406;SDS011;37709;53.480;9.688;2022-09-09T12:07:21;1.80;;;1.10;;
2406;SDS011;37709;53.480;9.688;2022-09-09T12:09:58;1.43;;;1.00;;
2406;SDS011;37709;53.480;9.688;2022-09-09T12:12:47;2.90;;;1.20;;
2406;SDS011;37709;53.480;9.688;2022-09-09T12:18:00;2.20;;;0.97;;
2406;SDS011;37709;53.480;9.688;2022-09-09T12:25:57;1.90;;;1.03;;
2406;SDS011;37709;53.480;9.688;2022-09-09T12:28:27;1.88;;;1.00;;
2406;SDS011;37709;53.480;9.688;2022-09-09T12:31:25;2.83;;;1.07;;
2406;SDS011;37709;53.480;9.688;2022-09-09T12:34:09;1.77;;;1.20;;
2406;SDS011;37709;53.480;9.688;2022-09-09T12:36:56;1.53;;;0.90;;
2406;SDS011;37709;53.480;9.688;2022-09-09T12:39:37;2.53;;;0.93;;
2406;SDS011;37709;53.480;9.688;2022-09-09T12:42:16;2.97;;;1.10;;
2406;SDS011;37709;53.480;9.688;2022-09-09T12:44:51;2.30;;;1.13;;
2406;SDS011;37709;53.480;9.688;2022-09-09T12:47:19;2.23;;;1.03;;
2406;SDS011;37709;53.480;9.688;2022-09-09T12:49:56;2.23;;;1.10;;
2406;SDS011;37709;53.480;9.688;2022-09-09T12:52:26;3.30;;;1.40;;
2406;SDS011;37709;53.480;9.688;2022-09-09T12:55:00;3.00;;;1.30;;
2406;SDS011;37709;53.480;9.688;2022-09-09T12:57:34;4.53;;;1.30;;
2406;SDS011;37709;53.480;9.688;2022-09-09T13:00:15;1.93;;;1.10;;
2406;SDS011;37709;53.480;9.688;2022-09-09T13:02:46;2.03;;;1.10;;
2406;SDS011;37709;53.480;9.688;2022-09-09T13:05:22;2.90;;;1.50;;
2406;SDS011;37709;53.480;9.688;2022-09-09T13:07:59;2.45;;;1.23;;
2406;SDS011;37709;53.480;9.688;2022-09-09T13:10:32;2.93;;;1.33;;
2406;SDS011;37709;53.480;9.688;2022-09-09T13:13:21;3.10;;;1.50;;
2406;SDS011;37709;53.480;9.688;2022-09-09T13:15:59;2.70;;;1.43;;
2406;SDS011;37709;53.480;9.688;2022-09-09T13:18:32;1.63;;;0.90;;
2406;SDS011;37709;53.480;9.688;2022-09-09T13:21:02;2.37;;;1.40;;
2406;SDS011;37709;53.480;9.688;2022-09-09T13:23:30;2.70;;;1.20;;
2406;SDS011;37709;53.480;9.688;2022-09-09T13:26:06;1.67;;;0.90;;
2406;SDS011;37709;53.480;9.688;2022-09-09T13:28:52;1.67;;;1.27;;
2406;SDS011;37709;53.480;9.688;2022-09-09T13:31:22;2.77;;;1.37;;
2406;SDS011;37709;53.480;9.688;2022-09-09T13:33:54;2.40;;;1.30;;
2406;SDS011;37709;53.480;9.688;2022-09-09T13:36:29;1.67;;;1.07;;
2406;SDS011;37709;53.480;9.688;2022-09-09T13:38:59;3.20;;;2.10;;
2406;SDS011;37709;53.480;9.688;2022-09-09T13:41:32;4.47;;;1.87;;
2406;SDS011;37709;53.480;9.688;2022-09-09T13:44:02;2.63;;;2.10;;
2406;SDS011;37709;53.480;9.688;2022-09-09T13:46:34;2.13;;;1.93;;
2406;SDS011;37709;53.480;9.688;2022-09-09T13:51:38;3.80;;;1.83;;
2406;SDS011;37709;53.480;9.688;2022-09-09T13:54:06;4.13;;;2.27;;
2406;SDS011;37709;53.480;9.688;2022-09-09T13:56:37;4.03;;;2.50;;
2406;SDS011;37709;53.480;9.688;2022-09-09T13:59:09;4.67;;;2.00;;
2406;SDS011;37709;53.480;9.688;2022-09-09T14:01:41;3.13;;;2.87;;
2406;SDS011;37709;53.480;9.688;2022-09-09T14:04:09;5.33;;;2.80;;
2406;SDS011;37709;53.480;9.688;2022-09-09T14:06:38;3.03;;;2.20;;
2406;SDS011;37709;53.480;9.688;2022-09-09T14:09:06;3.80;;;2.30;;
2406;SDS011;37709;53.480;9.688;2022-09-09T14:11:36;3.37;;;2.00;;
2406;SDS011;37709;53.480;9.688;2022-09-09T14:14:05;2.07;;;1.40;;
2406;SDS011;37709;53.480;9.688;2022-09-09T14:16:33;5.00;;;2.40;;
2406;SDS011;37709;53.480;9.688;2022-09-09T14:21:54;2.50;;;1.70;;
2406;SDS011;37709;53.480;9.688;2022-09-09T14:24:21;3.03;;;1.90;;
2406;SDS011;37709;53.480;9.688;2022-09-09T14:26:49;3.47;;;1.80;;
2406;SDS011;37709;53.480;9.688;2022-09-09T14:29:17;2.43;;;1.50;;
2406;SDS011;37709;53.480;9.688;2022-09-09T14:31:44;3.00;;;1.80;;
2406;SDS011;37709;53.480;9.688;2022-09-09T14:34:12;2.27;;;1.50;;
2406;SDS011;37709;53.480;9.688;2022-09-09T14:36:41;2.80;;;2.03;;
2406;SDS011;37709;53.480;9.688;2022-09-09T14:39:08;2.07;;;1.87;;
2406;SDS011;37709;53.480;9.688;2022-09-09T14:41:36;4.40;;;2.13;;
2406;SDS011;37709;53.480;9.688;2022-09-09T14:44:04;3.57;;;2.43;;
2406;SDS011;37709;53.480;9.688;2022-09-09T14:46:32;2.37;;;2.17;;
2406;SDS011;37709;53.480;9.688;2022-09-09T14:51:52;2.40;;;2.20;;
2406;SDS011;37709;53.480;9.688;2022-09-09T14:54:19;2.60;;;2.40;;
2406;SDS011;37709;53.480;9.688;2022-09-09T14:56:48;3.03;;;2.17;;
2406;SDS011;37709;53.480;9.688;2022-09-09T14:59:15;4.23;;;2.30;;
2406;SDS011;37709;53.480;9.688;2022-09-09T15:01:43;3.00;;;2.10;;
2406;SDS011;37709;53.480;9.688;2022-09-09T15:04:11;3.63;;;2.23;;
2406;SDS011;37709;53.480;9.688;2022-09-09T15:06:40;2.37;;;1.93;;
2406;SDS011;37709;53.480;9.688;2022-09-09T15:09:09;3.87;;;2.47;;
2406;SDS011;37709;53.480;9.688;2022-09-09T15:11:37;5.27;;;2.33;;
2406;SDS011;37709;53.480;9.688;2022-09-09T15:14:05;2.50;;;2.30;;
2406;SDS011;37709;53.480;9.688;2022-09-09T15:16:34;3.10;;;2.80;;
2406;SDS011;37709;53.480;9.688;2022-09-09T15:19:02;3.97;;;2.53;;
2406;SDS011;37709;53.480;9.688;2022-09-09T15:21:31;5.93;;;2.73;;
2406;SDS011;37709;53.480;9.688;2022-09-09T15:24:01;4.23;;;2.93;;
2406;SDS011;37709;53.480;9.688;2022-09-09T15:26:29;3.20;;;2.90;;
2406;SDS011;37709;53.480;9.688;2022-09-09T15:28:57;3.13;;;2.60;;
2406;SDS011;37709;53.480;9.688;2022-09-09T15:31:27;2.73;;;2.53;;
2406;SDS011;37709;53.480;9.688;2022-09-09T15:33:58;3.17;;;2.87;;
2406;SDS011;37709;53.480;9.688;2022-09-09T15:38:59;2.30;;;2.10;;
2406;SDS011;37709;53.480;9.688;2022-09-09T15:41:27;2.53;;;2.33;;
2406;SDS011;37709;53.480;9.688;2022-09-09T15:43:56;3.10;;;2.10;;
2406;SDS011;37709;53.480;9.688;2022-09-09T15:46:25;4.70;;;2.07;;
2406;SDS011;37709;53.480;9.688;2022-09-09T15:49:05;5.50;;;2.07;;
2406;SDS011;37709;53.480;9.688;2022-09-09T15:51:37;2.47;;;2.17;;
2406;SDS011;37709;53.480;9.688;2022-09-09T15:54:11;2.10;;;1.80;;
2406;SDS011;37709;53.480;9.688;2022-09-09T15:56:49;7.40;;;1.93;;
2406;SDS011;37709;53.480;9.688;2022-09-09T15:59:25;2.60;;;2.20;;
2406;SDS011;37709;53.480;9.688;2022-09-09T16:01:54;2.80;;;1.73;;
2406;SDS011;37709;53.480;9.688;2022-09-09T16:04:23;2.30;;;2.10;;
2406;SDS011;37709;53.480;9.688;2022-09-09T16:06:58;2.03;;;1.30;;
2406;SDS011;37709;53.480;9.688;2022-09-09T16:09:27;2.70;;;2.10;;
2406;SDS011;37709;53.480;9.688;2022-09-09T16:11:56;2.93;;;1.70;;
2406;SDS011;37709;53.480;9.688;2022-09-09T16:14:25;2.10;;;1.47;;
2406;SDS011;37709;53.480;9.688;2022-09-09T16:16:53;1.53;;;1.10;;
2406;SDS011;37709;53.480;9.688;2022-09-09T16:19:24;1.73;;;1.23;;
2406;SDS011;37709;53.480;9.688;2022-09-09T16:21:52;1.70;;;1.30;;
2406;SDS011;37709;53.480;9.688;2022-09-09T16:24:20;2.97;;;1.80;;
2406;SDS011;37709;53.480;9.688;2022-09-09T16:26:50;2.20;;;1.60;;
2406;SDS011;37709;53.480;9.688;2022-09-09T16:29:18;2.30;;;1.40;;
2406;SDS011;37709;53.480;9.688;2022-09-09T16:31:48;1.63;;;1.50;;
2406;SDS011;37709;53.480;9.688;2022-09-09T16:34:18;1.80;;;1.43;;
2406;SDS011;37709;53.480;9.688;2022-09-09T16:36:47;1.43;;;1.13;;
2406;SDS011;37709;53.480;9.688;2022-09-09T16:39:16;1.57;;;0.90;;
2406;SDS011;37709;53.480;9.688;2022-09-09T16:41:46;2.77;;;1.00;;
2406;SDS011;37709;53.480;9.688;2022-09-09T16:44:15;1.10;;;0.90;;
2406;SDS011;37709;53.480;9.688;2022-09-09T16:46:46;2.30;;;1.03;;
2406;SDS011;37709;53.480;9.688;2022-09-09T16:49:15;1.20;;;0.87;;
2406;SDS011;37709;53.480;9.688;2022-09-09T16:51:45;2.77;;;1.27;;
2406;SDS011;37709;53.480;9.688;2022-09-09T16:54:19;1.40;;;0.97;;
2406;SDS011;37709;53.480;9.688;2022-09-09T16:56:48;1.60;;;1.40;;
2406;SDS011;37709;53.480;9.688;2022-09-09T16:59:17;2.27;;;1.10;;
2406;SDS011;37709;53.480;9.688;2022-09-09T17:01:47;2.43;;;1.10;;
2406;SDS011;37709;53.480;9.688;2022-09-09T17:04:17;1.80;;;1.40;;
2406;SDS011;37709;53.480;9.688;2022-09-09T17:06:51;1.30;;;1.17;;
2406;SDS011;37709;53.480;9.688;2022-09-09T17:09:20;3.20;;;1.30;;
2406;SDS011;37709;53.480;9.688;2022-09-09T17:11:49;2.77;;;1.40;;
2406;SDS011;37709;53.480;9.688;2022-09-09T17:14:19;2.30;;;1.40;;